Home > Products > Valid Products > MTR

000
SAUS44 KSHV 070557
MTRAQV
METAR KAQV 070556Z AUTO 00000KT 10SM FEW017 FEW023 BKN036 26/23
A3008 RMK AO2 SLP180 T02560233 10317 20256 403440222 51019





000
SAUS44 KSHV 070557
MTRAQV
METAR KAQV 070556Z AUTO 00000KT 10SM FEW017 FEW023 BKN036 26/23
A3008 RMK AO2 SLP180 T02560233 10317 20256 403440222 51019





000
SAUS44 KSHV 070555
MTRBKB
METAR KBKB 070554Z AUTO 00000KT 10SM CLR 26/23 A3007 RMK AO2 SLP207
T02560233 10322 20256 403500228 51023 $





000
SAUS44 KSHV 070555
MTRBKB
METAR KBKB 070554Z AUTO 00000KT 10SM CLR 26/23 A3007 RMK AO2 SLP207
T02560233 10322 20256 403500228 51023 $





000
SAUS44 KSHV 070546
MTRAQV
SPECI KAQV 070545Z AUTO 16003KT 10SM SCT018 BKN037 26/23 A3007 RMK
AO2 T02560233





000
SAUS44 KSHV 070504
MTRAQV
SPECI KAQV 070503Z AUTO 00000KT 10SM SCT018 BKN024 OVC034 26/23
A3007 RMK AO2 T02610233





000
SAUS44 KSHV 070504
MTRAQV
SPECI KAQV 070503Z AUTO 00000KT 10SM SCT018 BKN024 OVC034 26/23
A3007 RMK AO2 T02610233





000
SAUS44 KSHV 070457
MTRAQV
METAR KAQV 070456Z AUTO 00000KT 10SM FEW018 SCT026 OVC034 26/24
A3007 RMK AO2 SLP178 T02560239





000
SAUS44 KSHV 070455
MTRBKB
METAR KBKB 070454Z AUTO 16003KT 10SM CLR 27/23 A3006 RMK AO2 SLP203
T02670233 $





000
SAUS44 KSHV 070358
MTRAQV
METAR KAQV 070356Z AUTO 18003KT 10SM CLR 26/23 A3005 RMK AO2 SLP170
T02560233





000
SAUS44 KSHV 070355
MTRBKB
METAR KBKB 070354Z AUTO 00000KT 10SM CLR 27/23 A3004 RMK AO2 SLP197
T02720228 $





000
SAUS44 KSHV 070258
MTRAQV
METAR KAQV 070256Z AUTO 00000KT 10SM CLR 27/23 A3002 RMK AO2 SLP161
T02670228 53008





000
SAUS44 KSHV 070256
MTRBKB
METAR KBKB 070254Z AUTO 00000KT 10SM CLR 28/23 A3000 RMK AO2 SLP184
T02780228 53003 $





000
SAUS44 KSHV 070158
MTRAQV
METAR KAQV 070156Z AUTO 17004KT 10SM CLR 28/22 A2998 RMK AO2 SLP148
T02780222





000
SAUS44 KSHV 070158
MTRAQV
METAR KAQV 070156Z AUTO 17004KT 10SM CLR 28/22 A2998 RMK AO2 SLP148
T02780222





000
SAUS44 KSHV 070156
MTRBKB
METAR KBKB 070154Z AUTO VRB03KT 10SM CLR 29/23 A2997 RMK AO2 SLP174
T02890228 $





000
SAUS44 KSHV 070156
MTRBKB
METAR KBKB 070154Z AUTO VRB03KT 10SM CLR 29/23 A2997 RMK AO2 SLP174
T02890228 $





000
SAUS44 KSHV 070057
MTRAQV
METAR KAQV 070056Z AUTO 18004KT 10SM CLR 29/23 A2997 RMK AO2 SLP146
T02940228





000
SAUS44 KSHV 070056
MTRBKB
METAR KBKB 070054Z AUTO VRB04KT 10SM FEW036 31/23 A2997 RMK AO2
SLP174 T03060228 $





000
SAUS44 KSHV 070056
MTRBKB
METAR KBKB 070054Z AUTO VRB04KT 10SM FEW036 31/23 A2997 RMK AO2
SLP174 T03060228 $





000
SAUS44 KSHV 062357
MTRAQV
METAR KAQV 062356Z AUTO 17005KT 10SM CLR 32/22 A2999 RMK AO2 SLP153
T03170222 10344 20317 58018





000
SAUS44 KSHV 062356
MTRBKB
METAR KBKB 062354Z AUTO VRB05KT 10SM CLR 32/22 A2999 RMK AO2 SLP182
T03220222 10350 20322 58016 $





000
SAUS44 KSHV 062356
MTRBKB
METAR KBKB 062354Z AUTO VRB05KT 10SM CLR 32/22 A2999 RMK AO2 SLP182
T03220222 10350 20322 58016 $





000
SAUS44 KSHV 062257
MTRAQV
METAR KAQV 062256Z AUTO 19006KT 10SM CLR 33/22 A3002 RMK AO2 SLP161
T03330222





000
SAUS44 KSHV 062255
MTRBKB
METAR KBKB 062254Z AUTO VRB04KT 10SM CLR 33/22 A3001 RMK AO2 SLP187
T03330217 $





000
SAUS44 KSHV 062255
MTRBKB
METAR KBKB 062254Z AUTO VRB04KT 10SM CLR 33/22 A3001 RMK AO2 SLP187
T03330217 $





000
SAUS44 KSHV 062157
MTRAQV
METAR KAQV 062156Z AUTO 20007G15KT 170V260 10SM CLR 33/21 A3004 RMK
AO2 SLP169 T03330206





000
SAUS44 KSHV 062155
MTRBKB
METAR KBKB 062154Z AUTO VRB04KT 10SM CLR 34/21 A3003 RMK AO2 SLP194
T03440206 $





000
SAUS44 KSHV 062058
MTRAQV
METAR KAQV 062056Z AUTO VRB05KT 10SM FEW047 34/22 A3005 RMK AO2
SLP172 T03390217 58016





000
SAUS44 KSHV 062058
MTRAQV
METAR KAQV 062056Z AUTO VRB05KT 10SM FEW047 34/22 A3005 RMK AO2
SLP172 T03390217 58016





000
SAUS44 KSHV 062056
MTRBKB
METAR KBKB 062054Z AUTO VRB06KT 10SM CLR 35/21 A3004 RMK AO2 SLP197
T03500211 58014 $





000
SAUS44 KSHV 061957
MTRAQV
METAR KAQV 061956Z AUTO VRB05KT 10SM FEW044 34/22 A3007 RMK AO2
SLP180 T03440217





000
SAUS44 KSHV 061956
MTRBKB
METAR KBKB 061954Z AUTO VRB05KT 10SM BKN046 34/22 A3007 RMK AO2
SLP205 T03390222 $





000
SAUS44 KSHV 061956
MTRBKB
METAR KBKB 061954Z AUTO VRB05KT 10SM BKN046 34/22 A3007 RMK AO2
SLP205 T03390222 $





000
SAUS44 KSHV 061859 COR
MTRBKB
METAR KBKB 061854Z AUTO VRB05KT 10SM FEW041 34/22 A3007 RMK AO2
SLP207 T03440222 $





000
SAUS44 KSHV 061858
MTRAQV
METAR KAQV 061856Z AUTO VRB04KT 10SM FEW043 33/23 A3008 RMK AO2
SLP183 T03330228





000
SAUS44 KSHV 061857
MTRBKB
METAR KBKB 061854Z AUTO VRB05KT 10SM FEW041 34/22 A3007 RMK AO2
SLP207 T03440222 $





000
SAUS44 KSHV 061857
MTRBKB
METAR KBKB 061854Z AUTO VRB05KT 10SM FEW041 34/22 A3007 RMK AO2
SLP207 T03440222 $





000
SAUS44 KSHV 061757
MTRAQV
METAR KAQV 061756Z AUTO VRB06KT 10SM FEW037 SCT045 33/23 A3010 RMK
AO2 SLP189 T03280233 10328 20239 58006





000
SAUS44 KSHV 061757
MTRAQV
METAR KAQV 061756Z AUTO VRB06KT 10SM FEW037 SCT045 33/23 A3010 RMK
AO2 SLP189 T03280233 10328 20239 58006





000
SAUS44 KSHV 061755
MTRBKB
METAR KBKB 061754Z AUTO VRB04KT 10SM BKN039 34/23 A3009 RMK AO2
SLP213 T03390233 10344 20244 $





000
SAUS44 KSHV 061657
MTRAQV
METAR KAQV 061656Z AUTO VRB05G15KT 10SM FEW030 SCT037 SCT046 32/23
A3011 RMK AO2 SLP193 T03220233





000
SAUS44 KSHV 061655
MTRBKB
METAR KBKB 061654Z AUTO VRB05KT 10SM FEW029 33/23 A3010 RMK AO2
SLP219 T03330233 $





000
SAUS44 KSHV 061643
MTRBKB
SPECI KBKB 061641Z AUTO VRB05KT 10SM SCT029 33/23 A3011 RMK AO2
T03280233 $





000
SAUS44 KSHV 061634
MTRBKB
SPECI KBKB 061633Z AUTO VRB03KT 10SM BKN029 BKN038 32/24 A3011 RMK
AO2 T03220239 $





000
SAUS44 KSHV 061558
MTRAQV
METAR KAQV 061556Z AUTO 18008KT 140V220 10SM FEW035 31/24 A3012 RMK
AO2 SLP196 T03060239





000
SAUS44 KSHV 061555
MTRBKB
METAR KBKB 061554Z AUTO VRB05KT 10SM FEW022 FEW028 32/24 A3011 RMK
AO2 SLP222 T03170239 $





000
SAUS44 KSHV 061512
MTRAQV
SPECI KAQV 061511Z AUTO VRB05KT 10SM FEW018 SCT025 30/24 A3012 RMK
AO2 T03000244





000
SAUS44 KSHV 061458
MTRAQV
METAR KAQV 061456Z AUTO 20008KT 180V240 10SM BKN017 BKN025 29/24
A3012 RMK AO2 SLP195 T02940244 50004





000
SAUS44 KSHV 061458
MTRAQV
METAR KAQV 061456Z AUTO 20008KT 180V240 10SM BKN017 BKN025 29/24
A3012 RMK AO2 SLP195 T02940244 50004





000
SAUS44 KSHV 061455
MTRBKB
METAR KBKB 061454Z AUTO VRB05KT 10SM SCT017 SCT025 31/24 A3012 RMK
AO2 SLP224 T03060244 53005





000
SAUS44 KSHV 061428
MTRAQV
SPECI KAQV 061427Z AUTO VRB04KT 10SM BKN017 29/24 A3012 RMK AO2
T02940244





000
SAUS44 KSHV 061428
MTRAQV
SPECI KAQV 061427Z AUTO VRB04KT 10SM BKN017 29/24 A3012 RMK AO2
T02940244





000
SAUS44 KSHV 061357
MTRAQV
METAR KAQV 061356Z AUTO 19004KT 10SM FEW011 28/24 A3012 RMK AO2
SLP195 T02830244





000
SAUS44 KSHV 061355
MTRBKB
METAR KBKB 061354Z AUTO 00000KT 10SM CLR 29/24 A3011 RMK AO2 SLP220
T02940244





000
SAUS44 KSHV 061329
MTRAQV
SPECI KAQV 061328Z AUTO VRB04KT 10SM FEW005 27/24 A3011 RMK AO2
T02720244





000
SAUS44 KSHV 061329
MTRAQV
SPECI KAQV 061328Z AUTO VRB04KT 10SM FEW005 27/24 A3011 RMK AO2
T02720244





000
SAUS44 KSHV 061322
MTRAQV
SPECI KAQV 061321Z AUTO VRB03KT 9SM BKN005 27/24 A3011 RMK AO2
T02670239





000
SAUS44 KSHV 061257
MTRAQV
METAR KAQV 061256Z AUTO 17004KT 5SM BR OVC002 25/24 A3012 RMK AO2
SLP196 T02500239





000
SAUS44 KSHV 061255
MTRBKB
METAR KBKB 061254Z AUTO 00000KT 10SM CLR 26/23 A3011 RMK AO2 SLP222
T02610233 $





000
SAUS44 KSHV 061255
MTRBKB
METAR KBKB 061254Z AUTO 00000KT 10SM CLR 26/23 A3011 RMK AO2 SLP222
T02610233 $





000
SAUS44 KSHV 061247
MTRAQV
SPECI KAQV 061246Z AUTO VRB04KT 4SM BR OVC002 24/24 A3012 RMK AO2
T02440239





000
SAUS44 KSHV 061239
MTRAQV
SPECI KAQV 061238Z AUTO VRB03KT 2 1/2SM BR OVC002 24/24 A3012 RMK
AO2 T02440239





000
SAUS44 KSHV 061227
MTRBKB
SPECI KBKB 061226Z AUTO 00000KT 9SM FEW004 25/23 A3011 RMK AO2
T02500228 $





000
SAUS44 KSHV 061156
MTRAQV
METAR KAQV 061156Z AUTO 16003KT 1SM BR OVC002 24/23 A3010 RMK AO2
SLP191 70011 T02390233 10239 20222 50013





000
SAUS44 KSHV 061156
MTRAQV
METAR KAQV 061156Z AUTO 16003KT 1SM BR OVC002 24/23 A3010 RMK AO2
SLP191 70011 T02390233 10239 20222 50013





000
SAUS44 KSHV 061155
MTRBKB
METAR KBKB 061154Z AUTO 00000KT 6SM BR BKN003 BKN022 OVC028 24/22
A3010 RMK AO2 SLP219 70001 T02440222 10244 20228 53017 $





000
SAUS44 KSHV 061155
MTRBKB
METAR KBKB 061154Z AUTO 00000KT 6SM BR BKN003 BKN022 OVC028 24/22
A3010 RMK AO2 SLP219 70001 T02440222 10244 20228 53017 $





000
SAUS44 KSHV 061135
MTRAQV
SPECI KAQV 061134Z AUTO VRB03KT 3/4SM BR OVC002 24/23 A3010 RMK AO2
T02390228





000
SAUS44 KSHV 061135
MTRAQV
SPECI KAQV 061134Z AUTO VRB03KT 3/4SM BR OVC002 24/23 A3010 RMK AO2
T02390228





000
SAUS44 KSHV 061057
MTRAQV
METAR KAQV 061056Z AUTO VRB03KT 1SM BR OVC002 23/23 A3008 RMK AO2
SLP181 T02330228





000
SAUS44 KSHV 061055
MTRBKB
METAR KBKB 061054Z AUTO VRB03KT 8SM BKN004 BKN021 OVC029 24/22 A3007
RMK AO2 SLP208 T02390217 $





000
SAUS44 KSHV 061045
MTRAQV
SPECI KAQV 061044Z AUTO 16004KT 1SM BR VV002 23/23 A3007 RMK AO2
T02330228





000
SAUS44 KSHV 061045
MTRAQV
SPECI KAQV 061044Z AUTO 16004KT 1SM BR VV002 23/23 A3007 RMK AO2
T02330228





000
SAUS44 KSHV 061042
MTRBKB
SPECI KBKB 061041Z AUTO 00000KT 8SM BKN004 BKN021 24/22 A3007 RMK
AO2 T02390217 $





000
SAUS44 KSHV 061035
MTRBKB
SPECI KBKB 061034Z AUTO 00000KT 8SM SCT004 BKN022 24/22 A3007 RMK
AO2 T02390217 $





000
SAUS44 KSHV 060957
MTRAQV
METAR KAQV 060956Z AUTO 17004KT 3/4SM BR VV002 23/22 A3007 RMK AO2
SLP178 T02330222





000
SAUS44 KSHV 060957
MTRAQV
METAR KAQV 060956Z AUTO 17004KT 3/4SM BR VV002 23/22 A3007 RMK AO2
SLP178 T02330222





000
SAUS44 KSHV 060955
MTRBKB
METAR KBKB 060954Z AUTO 00000KT 8SM SCT005 23/21 A3006 RMK AO2
SLP205 T02330211 $





000
SAUS44 KSHV 060949
MTRAQV
SPECI KAQV 060948Z AUTO 18005KT 3/4SM BR VV002 23/22 A3007 RMK AO2
T02330222





000
SAUS44 KSHV 060949
MTRAQV
SPECI KAQV 060948Z AUTO 18005KT 3/4SM BR VV002 23/22 A3007 RMK AO2
T02330222





000
SAUS44 KSHV 060926
MTRAQV
SPECI KAQV 060924Z AUTO VRB03KT 1 3/4SM BR OVC003 23/22 A3006 RMK
AO2 T02280217





000
SAUS44 KSHV 060926
MTRAQV
SPECI KAQV 060924Z AUTO VRB03KT 1 3/4SM BR OVC003 23/22 A3006 RMK
AO2 T02280217





000
SAUS44 KSHV 060857
MTRAQV
METAR KAQV 060856Z AUTO 00000KT 7SM OVC004 23/22 A3005 RMK AO2
SLP174 T02280217 55000





000
SAUS44 KSHV 060857
MTRAQV
METAR KAQV 060856Z AUTO 00000KT 7SM OVC004 23/22 A3005 RMK AO2
SLP174 T02280217 55000





000
SAUS44 KSHV 060855
MTRBKB
METAR KBKB 060854Z AUTO 00000KT 7SM SCT004 23/21 A3005 RMK AO2
SLP202 T02280206 53002 $





000
SAUS44 KSHV 060837
MTRAQV
SPECI KAQV 060836Z AUTO 17003KT 7SM BKN004 22/21 A3005 RMK AO2
T02220211





000
SAUS44 KSHV 060837
MTRAQV
SPECI KAQV 060836Z AUTO 17003KT 7SM BKN004 22/21 A3005 RMK AO2
T02220211





000
SAUS44 KSHV 060815
MTRAQV
SPECI KAQV 060813Z AUTO VRB03KT 8SM SCT004 22/21 A3005 RMK AO2
T02220211





000
SAUS44 KSHV 060758
MTRAQV
METAR KAQV 060756Z AUTO 18003KT 10SM BKN006 22/21 A3005 RMK AO2
SLP172 T02220211





000
SAUS44 KSHV 060755
MTRBKB
METAR KBKB 060754Z AUTO 00000KT 10SM SCT006 23/21 A3004 RMK AO2
SLP197 T02330206 $





000
SAUS44 KSHV 060751
MTRBKB
SPECI KBKB 060749Z AUTO 00000KT 10SM FEW008 23/21 A3004 RMK AO2 $





000
SAUS44 KSHV 060657
MTRAQV
METAR KAQV 060656Z AUTO 18004KT 10SM CLR 22/21 A3005 RMK AO2 SLP172
T02220206





000
SAUS44 KSHV 060655
MTRBKB
METAR KBKB 060654Z AUTO VRB03KT 10SM CLR 23/21 A3005 RMK AO2 SLP200
T02330206 $





000
SAUS44 KSHV 060558
MTRAQV
METAR KAQV 060556Z AUTO 17004KT 10SM CLR 22/20 A3006 RMK AO2 SLP174
T02220200 10244 20222 403330222 55007





000
SAUS44 KSHV 060558
MTRAQV
METAR KAQV 060556Z AUTO 17004KT 10SM CLR 22/20 A3006 RMK AO2 SLP174
T02220200 10244 20222 403330222 55007





000
SAUS44 KSHV 060555
MTRBKB
METAR KBKB 060554Z AUTO 21003KT 10SM CLR 23/20 A3005 RMK AO2 SLP200
T02280200 10256 20228 403390228 56012 $





000
SAUS44 KSHV 060555
MTRBKB
METAR KBKB 060554Z AUTO 21003KT 10SM CLR 23/20 A3005 RMK AO2 SLP200
T02280200 10256 20228 403390228 56012 $





000
SAUS44 KSHV 060457
MTRAQV
METAR KAQV 060456Z AUTO VRB04KT 10SM CLR 22/20 A3005 RMK AO2 SLP172
T02220200





000
SAUS44 KSHV 060455
MTRBKB
METAR KBKB 060454Z AUTO 00000KT 10SM CLR 23/19 A3005 RMK AO2 SLP201
T02280194 $





000
SAUS44 KSHV 060357
MTRAQV
METAR KAQV 060356Z AUTO VRB03KT 10SM CLR 23/20 A3007 RMK AO2 SLP179
T02280200





000
SAUS44 KSHV 060357
MTRAQV
METAR KAQV 060356Z AUTO VRB03KT 10SM CLR 23/20 A3007 RMK AO2 SLP179
T02280200





000
SAUS44 KSHV 060356
MTRBKB
METAR KBKB 060354Z AUTO VRB03KT 10SM CLR 23/19 A3006 RMK AO2 SLP205
T02330194 $





000
SAUS44 KSHV 060257
MTRAQV
METAR KAQV 060256Z AUTO 16006KT 10SM CLR 23/21 A3008 RMK AO2 SLP182
T02280206 50001





000
SAUS44 KSHV 060255
MTRBKB
METAR KBKB 060254Z AUTO 16004KT 10SM SCT019 23/20 A3008 RMK AO2
SLP212 T02330200 50006 $





000
SAUS44 KSHV 060255
MTRBKB
METAR KBKB 060254Z AUTO 16004KT 10SM SCT019 23/20 A3008 RMK AO2
SLP212 T02330200 50006 $





000
SAUS44 KSHV 060240
MTRBKB
SPECI KBKB 060239Z AUTO VRB04KT 10SM SCT019 23/20 A3008 RMK AO2
T02330200 $





000
SAUS44 KSHV 060233
MTRBKB
SPECI KBKB 060232Z AUTO VRB03KT 10SM BKN019 23/20 A3008 RMK AO2
T02330200 $





000
SAUS44 KSHV 060233
MTRBKB
SPECI KBKB 060232Z AUTO VRB03KT 10SM BKN019 23/20 A3008 RMK AO2
T02330200 $





000
SAUS44 KSHV 060158
MTRAQV
METAR KAQV 060156Z AUTO VRB04KT 10SM CLR 23/21 A3009 RMK AO2 SLP185
T02280206





000
SAUS44 KSHV 060155
MTRBKB
METAR KBKB 060154Z AUTO VRB04KT 10SM FEW020 24/19 A3009 RMK AO2
SLP214 T02390194 $





000
SAUS44 KSHV 060155
MTRBKB
METAR KBKB 060154Z AUTO VRB04KT 10SM FEW020 24/19 A3009 RMK AO2
SLP214 T02390194 $





000
SAUS44 KSHV 060142
MTRBKB
SPECI KBKB 060141Z AUTO 00000KT 10SM SCT020 24/19 A3009 RMK AO2
T02390194 $





000
SAUS44 KSHV 060130
MTRBKB
SPECI KBKB 060129Z AUTO VRB04KT 10SM BKN020 BKN025 BKN035 24/19
A3009 RMK AO2 T02390194 $





000
SAUS44 KSHV 060111
MTRBKB
SPECI KBKB 060109Z AUTO VRB05KT 10SM FEW020 SCT030 BKN036 24/19
A3009 RMK AO2 T02390194 $





000
SAUS44 KSHV 060102
MTRBKB
SPECI KBKB 060101Z AUTO VRB04KT 10SM BKN028 BKN039 24/19 A3009 RMK
AO2 T02390194 $





000
SAUS44 KSHV 060057
MTRAQV
METAR KAQV 060056Z AUTO VRB05KT 10SM CLR 23/21 A3009 RMK AO2 SLP186
T02330206





000
SAUS44 KSHV 060055
MTRBKB
METAR KBKB 060054Z AUTO VRB04KT 10SM BKN030 BKN043 OVC070 24/19
A3009 RMK AO2 SLP214 T02390194 $





000
SAUS44 KSHV 052357
MTRAQV
METAR KAQV 052356Z AUTO 10006KT 10SM FEW028 SCT037 BKN050 24/21
A3008 RMK AO2 SLP182 60011 T02440206 10333 20244 53017





000
SAUS44 KSHV 052356
MTRBKB
METAR KBKB 052354Z AUTO VRB05KT 10SM SCT032 26/21 A3006 RMK AO2
SLP206 60001 T02560211 10339 20239 53016 $





000
SAUS44 KSHV 052258
MTRAQV
METAR KAQV 052256Z AUTO 17005KT 10SM CLR 32/24 A3004 RMK AO2 SLP170
T03170244





000
SAUS44 KSHV 052255
MTRBKB
METAR KBKB 052254Z AUTO VRB03KT 10SM CLR 29/24 A3004 RMK AO2 SLP199
T02940239 $





000
SAUS44 KSHV 052157
MTRAQV
METAR KAQV 052156Z AUTO 19005KT 10SM CLR 31/24 A2999 RMK AO2 TSE03
SLP152 T03110244





000
SAUS44 KSHV 052156
MTRBKB
METAR KBKB 052154Z AUTO VRB05KT 10SM CLR 30/24 A2999 RMK AO2 SLP182
T03000239 $





000
SAUS44 KSHV 052110
MTRAQV
SPECI KAQV 052109Z AUTO 17006KT 10SM CLR 30/23 A3003 RMK AO2 TSE03
T03000233





000
SAUS44 KSHV 052058
MTRAQV
METAR KAQV 052056Z AUTO 23003KT 10SM TS CLR 29/23 A3003 RMK AO2
TSE10B36B48 SLP164 60011 T02890228 58016





000
SAUS44 KSHV 052056
MTRBKB
METAR KBKB 052054Z AUTO 00000KT 10SM CLR 29/23 A3002 RMK AO2 TSE09
SLP190 60001 T02940228 58015 $





000
SAUS44 KSHV 052056
MTRBKB
METAR KBKB 052054Z AUTO 00000KT 10SM CLR 29/23 A3002 RMK AO2 TSE09
SLP190 60001 T02940228 58015 $





000
SAUS44 KSHV 052043
MTRAQV
SPECI KAQV 052042Z AUTO 00000KT 10SM TS CLR 28/23 A3002 RMK AO2
TSE10B36 T02830228





000
SAUS44 KSHV 052017
MTRAQV
SPECI KAQV 052016Z AUTO 18004KT 10SM CLR 30/22 A3004 RMK AO2 TSE10
T03000222





000
SAUS44 KSHV 052017
MTRAQV
SPECI KAQV 052016Z AUTO 18004KT 10SM CLR 30/22 A3004 RMK AO2 TSE10
T03000222





000
SAUS44 KSHV 052016
MTRBKB
SPECI KBKB 052015Z AUTO 00000KT 10SM CLR 28/22 A3005 RMK AO2 TSE09
T02780217 $





000
SAUS44 KSHV 051957
MTRAQV
METAR KAQV 051956Z AUTO 18003KT 10SM TS FEW032 FEW110 27/23 A3006
RMK AO2 RAB16E49 TSB1857 SLP175 P0011 T02670233





000
SAUS44 KSHV 051955
MTRBKB
METAR KBKB 051954Z AUTO 00000KT 10SM TS CLR 27/21 A3005 RMK AO2
RAE06 TSB24E51B54 PRESRR SLP202 P0000 T02720211 $





000
SAUS44 KSHV 051938
MTRAQV
SPECI KAQV 051936Z AUTO 22005KT 3SM -TSRA SCT045 BKN065 OVC110 25/22
A3005 RMK AO2 RAB16 TSB1857 P0011 T02500222





000
SAUS44 KSHV 051921
MTRAQV
SPECI KAQV 051920Z AUTO VRB04G19KT 1 3/4SM +TSRA SCT034 BKN046
OVC080 25/21 A3006 RMK AO2 RAB16 TSB1857 P0007 T02500211





000
SAUS44 KSHV 051903
MTRAQV
SPECI KAQV 051903Z AUTO 20009G18KT 170V250 10SM TS BKN034 BKN045
28/21 A3006 RMK AO2 TSB1857 T02780206





000
SAUS44 KSHV 051857
MTRAQV
METAR KAQV 051856Z AUTO 20009G18KT 150V240 10SM BKN034 31/23 A3006
RMK AO2 SLP175 T03060228





000
SAUS44 KSHV 051857
MTRAQV
METAR KAQV 051856Z AUTO 20009G18KT 150V240 10SM BKN034 31/23 A3006
RMK AO2 SLP175 T03060228





000
SAUS44 KSHV 051856
MTRBKB
METAR KBKB 051854Z AUTO VRB04G17KT 5SM -TSRA SCT034 BKN060 OVC095
24/20 A3007 RMK AO2 RAB49 TSB26 SLP209 P0001 T02390200 $





000
SAUS44 KSHV 051830
MTRBKB
SPECI KBKB 051829Z AUTO 20008KT 10SM TS FEW033 SCT042 BKN050 30/20
A3009 RMK AO2 TSB26 PRESRR T03000200 $





000
SAUS44 KSHV 051757
MTRAQV
METAR KAQV 051756Z AUTO 19005KT 10SM SCT032 SCT042 33/24 A3007 RMK
AO2 SLP180 T03280239 10328 20244 58006





000
SAUS44 KSHV 051755
MTRBKB
METAR KBKB 051754Z AUTO VRB03KT 10SM FEW033 34/24 A3006 RMK AO2
SLP204 T03390239 10339 20250 58006 $





000
SAUS44 KSHV 051755
MTRBKB
METAR KBKB 051754Z AUTO VRB03KT 10SM FEW033 34/24 A3006 RMK AO2
SLP204 T03390239 10339 20250 58006 $





000
SAUS44 KSHV 051658
MTRAQV
METAR KAQV 051656Z AUTO VRB04KT 10SM FEW026 32/24 A3009 RMK AO2
SLP187 T03170239





000
SAUS44 KSHV 051655
MTRBKB
METAR KBKB 051654Z AUTO VRB03KT 10SM SCT031 BKN040 BKN050 32/24
A3008 RMK AO2 SLP212 T03220239 $





000
SAUS44 KSHV 051608
MTRAQV
SPECI KAQV 051607Z AUTO VRB04KT 10SM FEW019 FEW027 31/25 A3010 RMK
AO2 T03060250





000
SAUS44 KSHV 051557
MTRAQV
METAR KAQV 051556Z AUTO VRB05KT 10SM SCT019 BKN025 BKN032 30/24
A3010 RMK AO2 SLP187 T03000244





000
SAUS44 KSHV 051556
MTRBKB
METAR KBKB 051554Z AUTO 21004KT 10SM FEW017 SCT025 BKN032 31/25
A3008 RMK AO2 SLP212 T03060250 $





000
SAUS44 KSHV 051556
MTRBKB
METAR KBKB 051554Z AUTO 21004KT 10SM FEW017 SCT025 BKN032 31/25
A3008 RMK AO2 SLP212 T03060250 $





000
SAUS44 KSHV 051517
MTRAQV
SPECI KAQV 051516Z AUTO VRB06KT 10SM BKN015 BKN020 28/24 A3009 RMK
AO2 T02830244





000
SAUS44 KSHV 051506
MTRBKB
SPECI KBKB 051505Z AUTO VRB03KT 10SM BKN015 31/26 A3008 RMK AO2
T03110256 $





000
SAUS44 KSHV 051506
MTRBKB
SPECI KBKB 051505Z AUTO VRB03KT 10SM BKN015 31/26 A3008 RMK AO2
T03110256 $





000
SAUS44 KSHV 051457
MTRAQV
METAR KAQV 051456Z AUTO VRB04KT 10SM BKN013 BKN018 28/24 A3009 RMK
AO2 SLP186 T02830244 53005





000
SAUS44 KSHV 051455
MTRBKB
METAR KBKB 051454Z AUTO VRB04KT 10SM BKN013 BKN020 29/25 A3008 RMK
AO2 SLP212 T02940250 53004 $





000
SAUS44 KSHV 051447
MTRAQV
SPECI KAQV 051446Z AUTO 00000KT 10SM SCT009 BKN015 BKN019 28/25
A3009 RMK AO2 T02830250





000
SAUS44 KSHV 051440
MTRBKB
SPECI KBKB 051438Z AUTO 20003KT 10SM BKN011 29/25 A3008 RMK AO2
T02890250 $





000
SAUS44 KSHV 051440
MTRBKB
SPECI KBKB 051438Z AUTO 20003KT 10SM BKN011 29/25 A3008 RMK AO2
T02890250 $





000
SAUS44 KSHV 051406
MTRAQV
SPECI KAQV 051404Z AUTO 21006KT 7SM BKN005 OVC010 26/24 A3009 RMK
AO2 CIG 003V009 T02610244





000
SAUS44 KSHV 051406
MTRAQV
SPECI KAQV 051404Z AUTO 21006KT 7SM BKN005 OVC010 26/24 A3009 RMK
AO2 CIG 003V009 T02610244





000
SAUS44 KSHV 051357
MTRAQV
METAR KAQV 051356Z AUTO 24005KT 6SM BR OVC003 26/24 A3009 RMK AO2
CIG 002V007 SLP185 T02560244





000
SAUS44 KSHV 051355
MTRBKB
METAR KBKB 051354Z AUTO VRB03KT 10SM OVC005 27/25 A3007 RMK AO2 CIG
003V009 SLP209 T02720250 $





000
SAUS44 KSHV 051355
MTRBKB
METAR KBKB 051354Z AUTO VRB03KT 10SM OVC005 27/25 A3007 RMK AO2 CIG
003V009 SLP209 T02720250 $





000
SAUS44 KSHV 051335
MTRAQV
SPECI KAQV 051333Z AUTO VRB03KT 4SM BR OVC002 26/24 A3008 RMK AO2
T02560244





000
SAUS44 KSHV 051335
MTRAQV
SPECI KAQV 051333Z AUTO VRB03KT 4SM BR OVC002 26/24 A3008 RMK AO2
T02560244





000
SAUS44 KSHV 051327
MTRAQV
SPECI KAQV 051326Z AUTO VRB03KT 2 1/2SM BR OVC002 26/24 A3008 RMK
AO2 T02560244





000
SAUS44 KSHV 051327
MTRAQV
SPECI KAQV 051326Z AUTO VRB03KT 2 1/2SM BR OVC002 26/24 A3008 RMK
AO2 T02560244





000
SAUS44 KSHV 051315
MTRBKB
SPECI KBKB 051314Z AUTO 00000KT 3SM BR OVC002 27/24 A3007 RMK AO2
T02670244 $





000
SAUS44 KSHV 051306
MTRAQV
SPECI KAQV 051304Z AUTO 19004KT 1SM BR OVC002 26/24 A3008 RMK AO2
T02560244





000
SAUS44 KSHV 051306
MTRAQV
SPECI KAQV 051304Z AUTO 19004KT 1SM BR OVC002 26/24 A3008 RMK AO2
T02560244





000
SAUS44 KSHV 051257
MTRAQV
METAR KAQV 051256Z AUTO 19003KT 3/4SM BR OVC002 25/24 A3008 RMK AO2
SLP182 T02500244





000
SAUS44 KSHV 051255
MTRBKB
METAR KBKB 051254Z AUTO 20004KT 1SM BR VV002 26/24 A3007 RMK AO2
SLP208 T02610239 $





000
SAUS44 KSHV 051157
MTRAQV
METAR KAQV 051156Z AUTO 00000KT 1/2SM FG VV003 24/24 A3008 RMK AO2
SLP182 70157 T02440239 10244 20228 53010





000
SAUS44 KSHV 051157
MTRAQV
METAR KAQV 051156Z AUTO 00000KT 1/2SM FG VV003 24/24 A3008 RMK AO2
SLP182 70157 T02440239 10244 20228 53010





000
SAUS44 KSHV 051155
MTRBKB
METAR KBKB 051154Z AUTO 00000KT 1/4SM FG VV002 25/23 A3007 RMK AO2
SLP207 70068 T02500233 10250 20239 53010 $





000
SAUS44 KSHV 051057
MTRAQV
METAR KAQV 051056Z AUTO 00000KT 1/2SM FG VV002 24/23 A3007 RMK AO2
SLP179 T02440233





000
SAUS44 KSHV 051057
MTRAQV
METAR KAQV 051056Z AUTO 00000KT 1/2SM FG VV002 24/23 A3007 RMK AO2
SLP179 T02440233





000
SAUS44 KSHV 051056
MTRBKB
METAR KBKB 051054Z AUTO 00000KT 1/2SM FG VV002 24/23 A3005 RMK AO2
SLP203 T02440228 $





000
SAUS44 KSHV 051012
MTRBKB
SPECI KBKB 051010Z AUTO 00000KT 3/4SM BR VV002 24/23 A3005 RMK AO2
T02440228 $





000
SAUS44 KSHV 051012
MTRBKB
SPECI KBKB 051010Z AUTO 00000KT 3/4SM BR VV002 24/23 A3005 RMK AO2
T02440228 $





000
SAUS44 KSHV 051003
MTRBKB
SPECI KBKB 051002Z AUTO 00000KT 1SM BR VV002 24/23 A3005 RMK AO2
T02440228 $





000
SAUS44 KSHV 050957
MTRAQV
METAR KAQV 050956Z AUTO 18003KT 1/2SM FG VV002 24/23 A3005 RMK AO2
SLP173 T02390233





000
SAUS44 KSHV 050955
MTRBKB
METAR KBKB 050954Z AUTO 00000KT 2SM BR OVC002 24/23 A3005 RMK AO2
SLP202 T02440228 $





000
SAUS44 KSHV 050955
MTRBKB
METAR KBKB 050954Z AUTO 00000KT 2SM BR OVC002 24/23 A3005 RMK AO2
SLP202 T02440228 $





000
SAUS44 KSHV 050857
MTRAQV
METAR KAQV 050856Z AUTO 18005KT 1/2SM FG VV002 24/23 A3005 RMK AO2
SLP170 T02390228 51008





000
SAUS44 KSHV 050855
MTRBKB
METAR KBKB 050854Z AUTO 00000KT 4SM BR OVC003 24/22 A3004 RMK AO2
SLP196 T02440222 53007 $





000
SAUS44 KSHV 050825
MTRAQV
SPECI KAQV 050823Z AUTO 18004KT 1/2SM FG VV002 23/22 A3004 RMK AO2
T02330222





000
SAUS44 KSHV 050825
MTRAQV
SPECI KAQV 050823Z AUTO 18004KT 1/2SM FG VV002 23/22 A3004 RMK AO2
T02330222





000
SAUS44 KSHV 050810
MTRAQV
SPECI KAQV 050809Z AUTO 18004KT 1 3/4SM BR OVC002 23/22 A3004 RMK
AO2 T02330222





000
SAUS44 KSHV 050757
MTRAQV
METAR KAQV 050756Z AUTO 18003KT 8SM BKN003 23/22 A3003 RMK AO2
SLP166 T02330217





000
SAUS44 KSHV 050757
MTRAQV
METAR KAQV 050756Z AUTO 18003KT 8SM BKN003 23/22 A3003 RMK AO2
SLP166 T02330217





000
SAUS44 KSHV 050755
MTRBKB
METAR KBKB 050754Z AUTO 00000KT 6SM BR OVC003 24/22 A3003 RMK AO2
SLP193 T02440222 $





000
SAUS44 KSHV 050751
MTRAQV
SPECI KAQV 050749Z AUTO 17004KT 9SM BKN003 23/22 A3003 RMK AO2
T02280217





000
SAUS44 KSHV 050751
MTRAQV
SPECI KAQV 050749Z AUTO 17004KT 9SM BKN003 23/22 A3003 RMK AO2
T02280217





000
SAUS44 KSHV 050740
MTRAQV
SPECI KAQV 050739Z AUTO 00000KT 9SM SCT003 23/22 A3003 RMK AO2
T02280217





000
SAUS44 KSHV 050658
MTRAQV
METAR KAQV 050656Z AUTO 00000KT 10SM FEW013 23/22 A3003 RMK AO2
SLP166 T02280217





000
SAUS44 KSHV 050658
MTRAQV
METAR KAQV 050656Z AUTO 00000KT 10SM FEW013 23/22 A3003 RMK AO2
SLP166 T02280217





000
SAUS44 KSHV 050656
MTRBKB
METAR KBKB 050654Z AUTO 00000KT 8SM BKN002 24/22 A3002 RMK AO2
SLP191 T02440222 $





000
SAUS44 KSHV 050656
MTRBKB
METAR KBKB 050654Z AUTO 00000KT 8SM BKN002 24/22 A3002 RMK AO2
SLP191 T02440222 $





000
SAUS44 KSHV 050647
MTRBKB
SPECI KBKB 050646Z AUTO 00000KT 9SM BKN003 24/22 A3002 RMK AO2
T02440222 $





000
SAUS44 KSHV 050647
MTRBKB
SPECI KBKB 050646Z AUTO 00000KT 9SM BKN003 24/22 A3002 RMK AO2
T02440222 $





000
SAUS44 KSHV 050627
MTRBKB
SPECI KBKB 050626Z AUTO 16003KT 10SM SCT003 24/22 A3002 RMK AO2
T02390217 $





000
SAUS44 KSHV 050557
MTRAQV
METAR KAQV 050556Z AUTO 00000KT 10SM CLR 23/22 A3002 RMK AO2 SLP162
60129 T02280217 10233 20222 403390222 51003





000
SAUS44 KSHV 050557
MTRAQV
METAR KAQV 050556Z AUTO 00000KT 10SM CLR 23/22 A3002 RMK AO2 SLP162
60129 T02280217 10233 20222 403390222 51003





000
SAUS44 KSHV 050555
MTRBKB
METAR KBKB 050554Z AUTO 00000KT 10SM CLR 24/22 A3002 RMK AO2 SLP188
60019 T02390217 10244 20233 403440233 55007 $





000
SAUS44 KSHV 050458
MTRAQV
METAR KAQV 050456Z AUTO 18003KT 10SM FEW002 22/21 A3002 RMK AO2
SLP161 T02220211





000
SAUS44 KSHV 050456
MTRBKB
METAR KBKB 050454Z AUTO 00000KT 10SM FEW002 23/22 A3001 RMK AO2
SLP188 T02330217 $





000
SAUS44 KSHV 050410
MTRBKB
SPECI KBKB 050409Z AUTO 00000KT 10SM FEW003 24/22 A3002 RMK AO2
T02390217 $





000
SAUS44 KSHV 050357
MTRAQV
METAR KAQV 050356Z AUTO 00000KT 10SM BKN003 23/21 A3003 RMK AO2
RAE09 SLP164 P0000 T02280211





000
SAUS44 KSHV 050357
MTRAQV
METAR KAQV 050356Z AUTO 00000KT 10SM BKN003 23/21 A3003 RMK AO2
RAE09 SLP164 P0000 T02280211





000
SAUS44 KSHV 050355
MTRBKB
METAR KBKB 050354Z AUTO 00000KT 10SM CLR 24/22 A3002 RMK AO2 RAE24
TSE0259 SLP192 P0001 T02390217 $





000
SAUS44 KSHV 050355
MTRBKB
METAR KBKB 050354Z AUTO 00000KT 10SM CLR 24/22 A3002 RMK AO2 RAE24
TSE0259 SLP192 P0001 T02390217 $





000
SAUS44 KSHV 050334
MTRAQV
SPECI KAQV 050333Z AUTO 18003KT 10SM BKN003 22/21 A3004 RMK AO2
RAE09 P0000 T02220211





000
SAUS44 KSHV 050334
MTRAQV
SPECI KAQV 050333Z AUTO 18003KT 10SM BKN003 22/21 A3004 RMK AO2
RAE09 P0000 T02220211





000
SAUS44 KSHV 050326
MTRBKB
SPECI KBKB 050325Z AUTO VRB03KT 10SM FEW003 SCT055 BKN075 24/22
A3003 RMK AO2 RAE24 TSE0259 P0001 T02390217 $





000
SAUS44 KSHV 050326
MTRBKB
SPECI KBKB 050325Z AUTO VRB03KT 10SM FEW003 SCT055 BKN075 24/22
A3003 RMK AO2 RAE24 TSE0259 P0001 T02390217 $





000
SAUS44 KSHV 050317
MTRAQV
SPECI KAQV 050315Z AUTO VRB03KT 10SM FEW003 SCT095 23/21 A3002 RMK
AO2 RAE09 P0000 T02280211





000
SAUS44 KSHV 050306
MTRBKB
SPECI KBKB 050305Z AUTO 10003KT 10SM -RA FEW075 SCT100 BKN120 23/22
A3003 RMK AO2 TSE0259 P0001 T02330217 $





000
SAUS44 KSHV 050258
MTRAQV
METAR KAQV 050256Z AUTO 00000KT 10SM -RA FEW100 23/22 A3001 RMK AO2
TSE24 SLP159 P0006 60129 T02280217 58002





000
SAUS44 KSHV 050255
MTRBKB
METAR KBKB 050254Z AUTO 12003KT 8SM -TSRA FEW090 BKN110 23/21 A3004
RMK AO2 TSB09 SLP197 P0014 60018 T02330211 50018 $





000
SAUS44 KSHV 050244
MTRBKB
SPECI KBKB 050242Z AUTO 00000KT 7SM -TSRA SCT026 BKN090 BKN110 23/22
A3005 RMK AO2 TSB09 P0013 T02330217 $





000
SAUS44 KSHV 050244
MTRBKB
SPECI KBKB 050242Z AUTO 00000KT 7SM -TSRA SCT026 BKN090 BKN110 23/22
A3005 RMK AO2 TSB09 P0013 T02330217 $





000
SAUS44 KSHV 050231
MTRAQV
SPECI KAQV 050230Z AUTO 18004KT 9SM -RA FEW110 22/21 A3003 RMK AO2
TSE24 P0005 T02220211





000
SAUS44 KSHV 050157
MTRAQV
METAR KAQV 050156Z AUTO 00000KT 10SM -TSRA FEW024 FEW055 BKN110
22/21 A3004 RMK AO2 SLP167 P0118 T02220211





000
SAUS44 KSHV 050156
MTRBKB
METAR KBKB 050154Z AUTO 03005KT 7SM -TSRA FEW006 OVC015 24/22 A3004
RMK AO2 RAB25 TSB48 SLP199 P0004 T02390217 $





000
SAUS44 KSHV 050149
MTRBKB
SPECI KBKB 050148Z AUTO 01003KT 7SM -TSRA FEW006 OVC015 24/22 A3004
RMK AO2 RAB25 TSB48 P0003 $





000
SAUS44 KSHV 050146
MTRAQV
SPECI KAQV 050144Z AUTO 36004KT 9SM -TSRA SCT012 BKN055 BKN110 22/21
A3004 RMK AO2 P0118 T02220211





000
SAUS44 KSHV 050138
MTRAQV
SPECI KAQV 050137Z AUTO 02004KT 2 1/2SM -TSRA BR BKN014 BKN045
OVC110 22/21 A3005 RMK AO2 P0116 T02220211





000
SAUS44 KSHV 050138
MTRAQV
SPECI KAQV 050137Z AUTO 02004KT 2 1/2SM -TSRA BR BKN014 BKN045
OVC110 22/21 A3005 RMK AO2 P0116 T02220211





000
SAUS44 KSHV 050137
MTRBKB
SPECI KBKB 050136Z AUTO 00000KT 9SM -RA FEW006 OVC014 24/22 A3003
RMK AO2 RAB25 P0001 T02440222 $





000
SAUS44 KSHV 050137
MTRBKB
SPECI KBKB 050136Z AUTO 00000KT 9SM -RA FEW006 OVC014 24/22 A3003
RMK AO2 RAB25 P0001 T02440222 $





000
SAUS44 KSHV 050120
MTRBKB
SPECI KBKB 050119Z AUTO VRB04KT 10SM BKN014 BKN022 OVC028 24/22
A3002 RMK AO2 T02440217 $





000
SAUS44 KSHV 050120
MTRBKB
SPECI KBKB 050119Z AUTO VRB04KT 10SM BKN014 BKN022 OVC028 24/22
A3002 RMK AO2 T02440217 $





000
SAUS44 KSHV 050118
MTRAQV
SPECI KAQV 050117Z AUTO 35007KT 3/4SM +TSRA BR BKN010 BKN022 OVC042
22/21 A3005 RMK AO2 P0047 T02220211





000
SAUS44 KSHV 050111
MTRBKB
SPECI KBKB 050110Z AUTO VRB04KT 10SM SCT014 BKN022 BKN028 24/22
A3002 RMK AO2 T02440222 $





000
SAUS44 KSHV 050111
MTRAQV
SPECI KAQV 050109Z AUTO VRB04G15KT 2SM +TSRA BR FEW006 BKN014 OVC042
23/22 A3005 RMK AO2 P0017 T02280217





000
SAUS44 KSHV 050111
MTRBKB
SPECI KBKB 050110Z AUTO VRB04KT 10SM SCT014 BKN022 BKN028 24/22
A3002 RMK AO2 T02440222 $





000
SAUS44 KSHV 050111
MTRAQV
SPECI KAQV 050109Z AUTO VRB04G15KT 2SM +TSRA BR FEW006 BKN014 OVC042
23/22 A3005 RMK AO2 P0017 T02280217





000
SAUS44 KSHV 050105
MTRAQV
SPECI KAQV 050103Z AUTO 36003KT 1 3/4SM +TSRA BR FEW006 BKN020
OVC028 23/22 A3004 RMK AO2 P0013 T02280217





000
SAUS44 KSHV 050105
MTRAQV
SPECI KAQV 050103Z AUTO 36003KT 1 3/4SM +TSRA BR FEW006 BKN020
OVC028 23/22 A3004 RMK AO2 P0013 T02280217





000
SAUS44 KSHV 050057
MTRAQV
METAR KAQV 050056Z AUTO VRB06KT 5SM -TSRA BR FEW006 BKN020 OVC037
23/22 A3004 RMK AO2 RAB00 TSB14 SLP170 P0005 T02330217





000
SAUS44 KSHV 050057
MTRAQV
METAR KAQV 050056Z AUTO VRB06KT 5SM -TSRA BR FEW006 BKN020 OVC037
23/22 A3004 RMK AO2 RAB00 TSB14 SLP170 P0005 T02330217





000
SAUS44 KSHV 050055
MTRBKB
METAR KBKB 050054Z AUTO VRB03KT 8SM FEW100 24/22 A3002 RMK AO2 RAE08
SLP189 P0000 T02440222 $





000
SAUS44 KSHV 050027
MTRAQV
SPECI KAQV 050026Z AUTO 00000KT 10SM -TSRA SCT021 BKN026 OVC080
23/22 A3001 RMK AO2 RAB00 TSB14 P0002 T02330217





000
SAUS44 KSHV 042358
MTRAQV
METAR KAQV 042356Z AUTO 36006KT 10SM TS FEW060 SCT080 BKN100 23/22
A3002 RMK AO2 RAE55 TSE14B31E46B48 PRESRR SLP162 P0001 60028
T02330217 10339 20233 53010





000
SAUS44 KSHV 042355
MTRBKB
METAR KBKB 042354Z AUTO 00000KT 5SM -RA BR FEW043 BKN095 BKN110
24/22 A2998 RMK AO2 RAE20B22 TSB2259E14 SLP179 P0003 60049 T02440222
10322 20233 50003 $





000
SAUS44 KSHV 042338
MTRAQV
SPECI KAQV 042337Z AUTO 00000KT 10SM -TSRA FEW050 SCT110 23/22 A2999
RMK AO2 TSE14B31 P0001 T02330217





000
SAUS44 KSHV 042321
MTRBKB
SPECI KBKB 042320Z AUTO 00000KT 10SM FEW047 BKN110 24/22 A2998 RMK
AO2 RAE20 TSB2259E14 P0001 T02390217 $





000
SAUS44 KSHV 042321
MTRAQV
SPECI KAQV 042320Z AUTO VRB05KT 10SM -RA SCT048 SCT075 BKN110 23/22
A2998 RMK AO2 TSE14 P0001 T02330217





000
SAUS44 KSHV 042301
MTRAQV
SPECI KAQV 042300Z AUTO VRB05KT 3SM -TSRA BR FEW016 BKN044 OVC080
23/22 A2998 RMK AO2 PRESFR P0000 T02330217





000
SAUS44 KSHV 042301
MTRAQV
SPECI KAQV 042300Z AUTO VRB05KT 3SM -TSRA BR FEW016 BKN044 OVC080
23/22 A2998 RMK AO2 PRESFR P0000 T02330217





000
SAUS44 KSHV 042258
MTRAQV
METAR KAQV 042256Z AUTO VRB06KT 1 1/2SM TSRA BR FEW017 BKN044 OVC080
23/22 A2999 RMK AO2 PK WND 19027/2219 RAB28 TSB09 SLP154 P0019
T02330217





000
SAUS44 KSHV 042258
MTRAQV
METAR KAQV 042256Z AUTO VRB06KT 1 1/2SM TSRA BR FEW017 BKN044 OVC080
23/22 A2999 RMK AO2 PK WND 19027/2219 RAB28 TSB09 SLP154 P0019
T02330217





000
SAUS44 KSHV 042256
MTRBKB
METAR KBKB 042254Z AUTO VRB03KT 10SM -TSRA BKN100 BKN120 23/21 A3000
RMK AO2 SLP184 P0022 T02330211 $





000
SAUS44 KSHV 042256
MTRBKB
METAR KBKB 042254Z AUTO VRB03KT 10SM -TSRA BKN100 BKN120 23/21 A3000
RMK AO2 SLP184 P0022 T02330211 $





000
SAUS44 KSHV 042252
MTRAQV
SPECI KAQV 042251Z AUTO 17006KT 3/4SM +TSRA BR FEW017 BKN037 OVC080
23/22 A3001 RMK AO2 PK WND 19027/2219 RAB28 TSB09 P0018





000
SAUS44 KSHV 042244
MTRAQV
SPECI KAQV 042242Z AUTO VRB03KT 1 3/4SM +TSRA FEW018 BKN055 OVC070
24/22 A3004 RMK AO2 PK WND 19027/2219 RAB28 TSB09 P0006 T02440217





000
SAUS44 KSHV 042240
MTRBKB
SPECI KBKB 042238Z AUTO 00000KT 3SM -TSRA FEW039 SCT070 OVC100 24/21
A3000 RMK AO2 P0021 T02390211 $





000
SAUS44 KSHV 042222
MTRBKB
SPECI KBKB 042221Z AUTO 21011G19KT 180V250 1 1/2SM TSRA SCT040
BKN055 OVC095 24/22 A3002 RMK AO2 P0015 T02440217 $





000
SAUS44 KSHV 042212
MTRBKB
SPECI KBKB 042210Z AUTO VRB03KT 3SM -TSRA BR SCT049 BKN065 OVC080
24/22 A3002 RMK AO2 P0008 T02440222 $





000
SAUS44 KSHV 042157
MTRAQV
METAR KAQV 042156Z AUTO VRB06KT 10SM TS FEW055 FEW075 SCT095 30/24
A2999 RMK AO2 RAE2059 TSE21B42 SLP151 P0000 T03000244





000
SAUS44 KSHV 042157
MTRBKB
METAR KBKB 042154Z AUTO VRB05KT 1 1/2SM TSRA FEW040 BKN055 OVC075
24/21 A3002 RMK AO2 RAB32 TSE01B34 PRESRR SLP190 P0007 T02440211 $





000
SAUS44 KSHV 042152
MTRBKB
SPECI KBKB 042151Z AUTO VRB06KT 1 3/4SM +TSRA FEW036 BKN055 OVC070
25/21 A3002 RMK AO2 RAB32 TSE01B34 PRESRR P0005 $





000
SAUS44 KSHV 042150
MTRAQV
SPECI KAQV 042148Z AUTO 19005KT 10SM TS FEW095 30/24 A2998 RMK AO2
RAE2059 TSE21B42 P0000 T03000244





000
SAUS44 KSHV 042137 COR
MTRBKB
SPECI KBKB 042134Z AUTO 20007G20KT 130V250 10SM -TSRA FEW036 BKN055
27/20 A3000 RMK AO2 RAB32 TSE01B34 P0000 T02720200 $





000
SAUS44 KSHV 042135
MTRAQV
SPECI KAQV 042134Z AUTO 19005KT 10SM FEW049 30/25 A2998 RMK AO2
RAE2059 TSE21 P0000 T03000250





000
SAUS44 KSHV 042129
MTRAQV
SPECI KAQV 042127Z AUTO 18007KT 10SM VCTS FEW042 SCT050 SCT070 30/24
A2998 RMK AO2 RAE2059 TSE21 P0000 T03000244





000
SAUS44 KSHV 042106
MTRBKB
SPECI KBKB 042105Z AUTO 19007KT 160V230 10SM CLR 32/24 A2998 RMK AO2
TSE01 T03170239 $





000
SAUS44 KSHV 042106
MTRBKB
SPECI KBKB 042105Z AUTO 19007KT 160V230 10SM CLR 32/24 A2998 RMK AO2
TSE01 T03170239 $





000
SAUS44 KSHV 042057
MTRAQV
METAR KAQV 042056Z AUTO VRB04KT 5SM -TSRA BR FEW040 SCT050 BKN065
27/25 A2998 RMK AO2 RAB46 TSB32 SLP147 P0004 60008 T02720250 55007





000
SAUS44 KSHV 042057
MTRAQV
METAR KAQV 042056Z AUTO VRB04KT 5SM -TSRA BR FEW040 SCT050 BKN065
27/25 A2998 RMK AO2 RAB46 TSB32 SLP147 P0004 60008 T02720250 55007





000
SAUS44 KSHV 042055
MTRBKB
METAR KBKB 042054Z AUTO VRB05KT 10SM TS CLR 31/23 A2997 RMK AO2
TSE01E20B42 SLP175 60017 T03110233 55002 $





000
SAUS44 KSHV 042055
MTRBKB
METAR KBKB 042054Z AUTO VRB05KT 10SM TS CLR 31/23 A2997 RMK AO2
TSE01E20B42 SLP175 60017 T03110233 55002 $





000
SAUS44 KSHV 042033
MTRAQV
SPECI KAQV 042032Z AUTO 18007G16KT 140V210 10SM TS FEW043 FEW070
SCT095 32/23 A2997 RMK AO2 TSB32 T03170233





000
SAUS44 KSHV 042026
MTRBKB
SPECI KBKB 042025Z AUTO VRB06KT 10SM CLR 32/24 A2998 RMK AO2
TSE01E20 T03220244 $





000
SAUS44 KSHV 042017
MTRBKB
SPECI KBKB 042016Z AUTO 10SM TS CLR 31/24 A2997 RMK AO2 TSE01
T03110244 $





000
SAUS44 KSHV 042008
MTRBKB
SPECI KBKB 042007Z AUTO VRB04KT 10SM CLR 31/25 A2998 RMK AO2 TSE01
T03060250 $





000
SAUS44 KSHV 042008
MTRBKB
SPECI KBKB 042007Z AUTO VRB04KT 10SM CLR 31/25 A2998 RMK AO2 TSE01
T03060250 $





000
SAUS44 KSHV 041958
MTRAQV
METAR KAQV 041956Z AUTO VRB04KT 10SM FEW045 FEW060 34/23 A2996 RMK
AO2 SLP140 T03390228





000
SAUS44 KSHV 041958
MTRAQV
METAR KAQV 041956Z AUTO VRB04KT 10SM FEW045 FEW060 34/23 A2996 RMK
AO2 SLP140 T03390228





000
SAUS44 KSHV 041955
MTRBKB
METAR KBKB 041954Z AUTO 00000KT 10SM TS FEW037 29/25 A2997 RMK AO2
RAE37 SLP174 P0017 T02940250 $





000
SAUS44 KSHV 041955
MTRBKB
METAR KBKB 041954Z AUTO 00000KT 10SM TS FEW037 29/25 A2997 RMK AO2
RAE37 SLP174 P0017 T02940250 $





000
SAUS44 KSHV 041912
MTRBKB
SPECI KBKB 041911Z AUTO 00000KT 3SM -TSRA FEW024 SCT041 BKN075 26/22
A2998 RMK AO2 P0017 T02560217 $





000
SAUS44 KSHV 041908
MTRBKB
SPECI KBKB 041907Z AUTO VRB03G14KT 3/4SM -TSRA FEW021 BKN037 OVC100
26/22 A2998 RMK AO2 P0017 T02560217 $





000
SAUS44 KSHV 041900
MTRBKB
SPECI KBKB 041859Z AUTO 23009G14KT 210V270 1 1/4SM TSRA FEW018
BKN037 BKN047 29/22 A2999 RMK AO2 P0010 T02890222 $





000
SAUS44 KSHV 041857
MTRAQV
METAR KAQV 041856Z AUTO 24008KT 10SM CLR 32/24 A2998 RMK AO2
RAB09E26 TSE12 SLP148 P0004 T03220239





000
SAUS44 KSHV 041856
MTRBKB
METAR KBKB 041854Z AUTO VRB03KT 10SM -TSRA SCT037 BKN047 30/23 A2998
RMK AO2 RAB42 TSB23B48 SLP176 P0000 T03000228 $





000
SAUS44 KSHV 041830
MTRBKB
SPECI KBKB 041829Z AUTO VRB03KT 10SM TS SCT042 34/23 A2997 RMK AO2
TSB23 T03440228 $





000
SAUS44 KSHV 041830
MTRBKB
SPECI KBKB 041829Z AUTO VRB03KT 10SM TS SCT042 34/23 A2997 RMK AO2
TSB23 T03440228 $





000
SAUS44 KSHV 041829
MTRAQV
SPECI KAQV 041828Z AUTO VRB03KT 10SM FEW038 SCT050 28/23 A2999 RMK
AO2 RAB09E26 TSE12 P0004 T02830233





000
SAUS44 KSHV 041829
MTRAQV
SPECI KAQV 041828Z AUTO VRB03KT 10SM FEW038 SCT050 28/23 A2999 RMK
AO2 RAB09E26 TSE12 P0004 T02830233





000
SAUS44 KSHV 041816
MTRAQV
SPECI KAQV 041815Z AUTO 21005G14KT 2 1/2SM +RA FEW032 SCT040 BKN050
28/22 A3000 RMK AO2 RAB09 TSE12 P0004 T02780217





000
SAUS44 KSHV 041757
MTRAQV
METAR KAQV 041756Z AUTO VRB05G14KT 10SM TS FEW037 SCT047 33/22 A3000
RMK AO2 TSB56 SLP153 T03280222 10328 20256 58010





000
SAUS44 KSHV 041755
MTRBKB
METAR KBKB 041754Z AUTO VRB05KT 10SM FEW037 33/22 A2998 RMK AO2
SLP176 T03330222 10339 20261 58014 $





000
SAUS44 KSHV 041755
MTRBKB
METAR KBKB 041754Z AUTO VRB05KT 10SM FEW037 33/22 A2998 RMK AO2
SLP176 T03330222 10339 20261 58014 $





000
SAUS44 KSHV 041657
MTRAQV
METAR KAQV 041656Z AUTO VRB04KT 10SM SCT029 BKN038 32/23 A3002 RMK
AO2 SLP160 T03170233





000
SAUS44 KSHV 041655
MTRBKB
METAR KBKB 041654Z AUTO VRB05KT 10SM SCT031 SCT040 33/23 A3000 RMK
AO2 SLP184 T03280233 $





000
SAUS44 KSHV 041650
MTRAQV
SPECI KAQV 041649Z AUTO 10SM SCT029 BKN037 32/23 A3002 RMK AO2
T03170228





000
SAUS44 KSHV 041557
MTRAQV
METAR KAQV 041556Z AUTO VRB05KT 10SM BKN025 BKN032 31/23 A3003 RMK
AO2 SLP164 T03060233





000
SAUS44 KSHV 041555
MTRBKB
METAR KBKB 041554Z AUTO VRB04KT 10SM SCT030 32/24 A3002 RMK AO2
SLP189 T03220239 $





000
SAUS44 KSHV 041507
MTRAQV
SPECI KAQV 041505Z AUTO 10SM SCT023 BKN027 31/24 A3003 RMK AO2
T03060239





000
SAUS44 KSHV 041457
MTRAQV
METAR KAQV 041456Z AUTO 00000KT 10SM SCT023 29/24 A3003 RMK AO2
SLP164 T02940239 51010





000
SAUS44 KSHV 041455
MTRBKB
METAR KBKB 041454Z AUTO VRB05KT 10SM SCT020 SCT027 31/24 A3002 RMK
AO2 SLP190 T03060239 53007 $





000
SAUS44 KSHV 041357
MTRAQV
METAR KAQV 041356Z AUTO VRB05KT 10SM CLR 28/24 A3002 RMK AO2 SLP162
T02830244





000
SAUS44 KSHV 041355
MTRBKB
METAR KBKB 041354Z AUTO VRB03KT 10SM CLR 28/24 A3002 RMK AO2 SLP188
T02830244 $





000
SAUS44 KSHV 041355
MTRBKB
METAR KBKB 041354Z AUTO VRB03KT 10SM CLR 28/24 A3002 RMK AO2 SLP188
T02830244 $





000
SAUS44 KSHV 041257
MTRAQV
METAR KAQV 041256Z AUTO 20005KT 10SM CLR 26/24 A3001 RMK AO2 SLP159
T02610239





000
SAUS44 KSHV 041255
MTRBKB
METAR KBKB 041254Z AUTO 00000KT 9SM CLR 27/24 A3000 RMK AO2 SLP184
T02670239 $





000
SAUS44 KSHV 041255
MTRBKB
METAR KBKB 041254Z AUTO 00000KT 9SM CLR 27/24 A3000 RMK AO2 SLP184
T02670239 $





000
SAUS44 KSHV 041157
MTRAQV
METAR KAQV 041156Z AUTO 20003KT 7SM CLR 26/24 A3000 RMK AO2 SLP155
T02560239 10256 20239 51006





000
SAUS44 KSHV 041157
MTRAQV
METAR KAQV 041156Z AUTO 20003KT 7SM CLR 26/24 A3000 RMK AO2 SLP155
T02560239 10256 20239 51006





000
SAUS44 KSHV 041155
MTRBKB
METAR KBKB 041154Z AUTO 00000KT 6SM HZ CLR 26/23 A3000 RMK AO2
SLP183 T02610233 10261 20250 51011 $





000
SAUS44 KSHV 041058
MTRAQV
METAR KAQV 041056Z AUTO VRB03KT 7SM CLR 25/23 A3000 RMK AO2 SLP154
T02500233





000
SAUS44 KSHV 041055
MTRBKB
METAR KBKB 041054Z AUTO 00000KT 9SM CLR 26/23 A3000 RMK AO2 SLP181
T02610233 $





000
SAUS44 KSHV 041055
MTRBKB
METAR KBKB 041054Z AUTO 00000KT 9SM CLR 26/23 A3000 RMK AO2 SLP181
T02610233 $





000
SAUS44 KSHV 040957
MTRAQV
METAR KAQV 040956Z AUTO VRB03KT 6SM BR FEW019 25/23 A2999 RMK AO2
SLP150 T02500233





000
SAUS44 KSHV 040955
MTRBKB
METAR KBKB 040954Z AUTO 00000KT 7SM CLR 26/23 A2998 RMK AO2 SLP174
T02560233 $





000
SAUS44 KSHV 040955
MTRBKB
METAR KBKB 040954Z AUTO 00000KT 7SM CLR 26/23 A2998 RMK AO2 SLP174
T02560233 $





000
SAUS44 KSHV 040928
MTRAQV
SPECI KAQV 040927Z AUTO 19003KT 7SM FEW025 25/23 A2998 RMK AO2
T02500233





000
SAUS44 KSHV 040857
MTRAQV
METAR KAQV 040856Z AUTO 00000KT 7SM FEW018 BKN023 25/23 A2998 RMK
AO2 SLP148 T02500233 55003





000
SAUS44 KSHV 040855
MTRBKB
METAR KBKB 040854Z AUTO 00000KT 6SM BR FEW026 25/23 A2997 RMK AO2
SLP172 T02500228 55007 $





000
SAUS44 KSHV 040855
MTRBKB
METAR KBKB 040854Z AUTO 00000KT 6SM BR FEW026 25/23 A2997 RMK AO2
SLP172 T02500228 55007 $





000
SAUS44 KSHV 040757
MTRAQV
METAR KAQV 040756Z AUTO 00000KT 6SM BR OVC021 24/23 A2997 RMK AO2
SLP145 T02440228





000
SAUS44 KSHV 040757
MTRBKB
METAR KBKB 040754Z AUTO 00000KT 7SM CLR 25/23 A2997 RMK AO2 SLP171
T02500228 $





000
SAUS44 KSHV 040736
MTRAQV
SPECI KAQV 040735Z AUTO 00000KT 6SM BR FEW018 BKN024 24/23 A2998 RMK
AO2 T02440228





000
SAUS44 KSHV 040736
MTRAQV
SPECI KAQV 040735Z AUTO 00000KT 6SM BR FEW018 BKN024 24/23 A2998 RMK
AO2 T02440228





000
SAUS44 KSHV 040655
MTRBKB
METAR KBKB 040654Z AUTO 00000KT 9SM FEW020 25/23 A2997 RMK AO2
SLP174 T02500228 $





    US Dept of Commerce
    National Oceanic and Atmospheric Administration
    National Weather Service
    1325 East West Highway
    Silver Spring, MD 20910
    Page Author: NWS Internet Services Team
Disclaimer
Information Quality
Credits
Glossary
Privacy Policy
Freedom of Information Act (FOIA)
About Us
Career Opportunities